Time;durP1;ratioP1;P1;durP2;ratioP2;P2;SDS_P1;SDS_P2;PMS_P1;PMS_P2;Temp;Humidity;BMP_temperature;BMP_pressure;BME280_temperature;BME280_humidity;BME280_pressure;Samples;Min_cycle;Max_cycle;Signal;HPM_P1;HPM_P2
2022/11/06 00:00:44;;;;;;;12.27;9.23;;;10.30;99.90;;;;;;5151657;27;20122;-77
2022/11/06 00:03:10;;;;;;;12.57;9.38;;;10.30;99.90;;;;;;5108463;27;20056;-77
2022/11/06 00:08:38;;;;;;;14.82;9.77;;;10.20;99.90;;;;;;5112329;27;20047;-77
2022/11/06 00:11:12;;;;;;;12.70;9.07;;;10.20;99.90;;;;;;5126497;27;20046;-77
2022/11/06 00:13:38;;;;;;;13.68;10.02;;;10.10;99.90;;;;;;5095532;27;20096;-76
2022/11/06 00:16:06;;;;;;;14.00;9.80;;;10.10;99.90;;;;;;5109939;27;20047;-76
2022/11/06 00:18:32;;;;;;;13.40;9.88;;;10.10;99.90;;;;;;5120756;27;20443;-76
2022/11/06 00:21:08;;;;;;;13.45;10.23;;;10.10;99.90;;;;;;5104015;27;20150;-77
2022/11/06 00:23:34;;;;;;;12.95;9.95;;;10.10;99.90;;;;;;5119167;27;20446;-77
2022/11/06 00:26:04;;;;;;;11.35;9.93;;;10.10;99.90;;;;;;5090712;27;20079;-78
2022/11/06 00:28:30;;;;;;;12.80;10.23;;;10.10;99.90;;;;;;5116432;27;20047;-78
2022/11/06 00:31:04;;;;;;;13.55;11.10;;;10.00;99.90;;;;;;5145320;27;20379;-76
2022/11/06 00:33:30;;;;;;;14.05;10.88;;;10.00;99.90;;;;;;5112160;27;20141;-77
2022/11/06 00:35:55;;;;;;;12.30;10.57;;;10.00;99.90;;;;;;5124868;27;20046;-77
2022/11/06 00:38:21;;;;;;;14.55;10.82;;;10.00;99.90;;;;;;5111974;27;20043;-77
2022/11/06 00:40:47;;;;;;;12.38;10.88;;;10.00;99.90;;;;;;5103296;27;20050;-78
2022/11/06 00:43:13;;;;;;;15.32;10.60;;;9.90;99.90;;;;;;5089375;27;20403;-78
2022/11/06 00:45:39;;;;;;;13.32;11.15;;;9.90;99.90;;;;;;5097693;27;20164;-76
2022/11/06 00:48:05;;;;;;;15.90;10.93;;;9.90;99.90;;;;;;5097372;27;20063;-77
2022/11/06 00:50:32;;;;;;;16.65;11.55;;;9.90;99.90;;;;;;5123224;27;20043;-76
2022/11/06 00:53:01;;;;;;;13.75;12.15;;;9.90;99.90;;;;;;5105474;27;20096;-78
2022/11/06 00:55:26;;;;;;;13.52;11.75;;;9.90;99.90;;;;;;5101186;27;20051;-77
2022/11/06 00:57:52;;;;;;;12.30;11.00;;;9.90;99.90;;;;;;5117926;27;20035;-77
2022/11/06 01:00:19;;;;;;;16.85;11.00;;;9.80;99.90;;;;;;5161728;27;20057;-77
2022/11/06 01:02:46;;;;;;;16.20;12.25;;;9.90;99.90;;;;;;5074555;28;20063;-77
2022/11/06 01:05:12;;;;;;;14.38;11.38;;;9.90;99.90;;;;;;5091620;28;20051;-77
2022/11/06 01:07:39;;;;;;;14.88;11.10;;;9.90;99.90;;;;;;5080372;27;20089;-78
2022/11/06 01:10:05;;;;;;;12.30;10.50;;;9.90;99.90;;;;;;5105731;27;20071;-76
2022/11/06 01:12:33;;;;;;;13.18;11.75;;;9.90;99.90;;;;;;5122407;27;20135;-78
2022/11/06 01:14:59;;;;;;;13.77;12.35;;;9.90;99.90;;;;;;5096130;28;20052;-71
2022/11/06 01:17:25;;;;;;;17.05;12.85;;;9.80;99.90;;;;;;5092421;27;20137;-71
2022/11/06 01:19:50;;;;;;;17.30;13.65;;;9.80;99.90;;;;;;5113716;27;20051;-78
2022/11/06 01:22:16;;;;;;;16.20;13.50;;;9.80;99.90;;;;;;5093870;27;20043;-78
2022/11/06 01:24:42;;;;;;;18.77;14.48;;;9.70;99.90;;;;;;5109342;27;20452;-78
2022/11/06 01:27:08;;;;;;;15.93;14.30;;;9.70;99.90;;;;;;5109979;27;20047;-78
2022/11/06 01:29:34;;;;;;;18.40;14.98;;;9.60;99.90;;;;;;5123171;27;20043;-77
2022/11/06 01:32:01;;;;;;;17.50;14.02;;;9.60;99.90;;;;;;5098851;27;20505;-78
2022/11/06 01:34:26;;;;;;;15.65;14.07;;;9.60;99.90;;;;;;5130801;27;20050;-77
2022/11/06 01:36:55;;;;;;;20.40;16.65;;;9.50;99.90;;;;;;5141292;27;20047;-78
2022/11/06 01:39:21;;;;;;;17.67;15.77;;;9.60;99.90;;;;;;5110109;27;20070;-77
2022/11/06 01:41:49;;;;;;;21.77;15.40;;;9.50;99.90;;;;;;5109324;27;20036;-77
2022/11/06 01:44:40;;;;;;;18.55;16.05;;;9.50;99.90;;;;;;5119266;27;20553;-79
2022/11/06 01:47:20;;;;;;;18.15;14.93;;;9.50;99.90;;;;;;5147963;27;20047;-77
2022/11/06 01:49:46;;;;;;;18.42;16.52;;;9.50;99.90;;;;;;5096750;28;20139;-77
2022/11/06 01:52:14;;;;;;;17.17;15.48;;;9.50;99.90;;;;;;5104106;27;20095;-78
2022/11/06 01:54:44;;;;;;;18.60;15.23;;;9.50;99.90;;;;;;5101662;28;20040;-78
2022/11/06 01:57:10;;;;;;;18.88;15.25;;;9.50;99.90;;;;;;5109418;27;20401;-77
2022/11/06 01:59:44;;;;;;;16.17;14.32;;;9.40;99.90;;;;;;5087731;27;20047;-77
2022/11/06 02:02:10;;;;;;;19.20;15.30;;;9.50;99.90;;;;;;5106337;27;20581;-77
2022/11/06 02:04:40;;;;;;;16.77;14.57;;;9.50;99.90;;;;;;5099911;27;20047;-77
2022/11/06 02:07:06;;;;;;;16.83;15.13;;;9.40;99.90;;;;;;5122392;27;20041;-78
2022/11/06 02:09:34;;;;;;;21.85;17.00;;;9.40;99.90;;;;;;5102845;27;20050;-78
2022/11/06 02:12:24;;;;;;;18.70;16.52;;;9.40;99.90;;;;;;5100306;27;20463;-77
2022/11/06 02:15:09;;;;;;;18.70;16.25;;;9.40;99.90;;;;;;5103948;27;20035;-77
2022/11/06 02:17:47;;;;;;;20.80;17.52;;;9.40;99.90;;;;;;5104090;27;20044;-77
2022/11/06 02:20:43;;;;;;;18.75;16.58;;;9.40;99.90;;;;;;5104190;27;20548;-78
2022/11/06 02:23:21;;;;;;;21.77;18.63;;;9.40;99.90;;;;;;5117437;27;20043;-77
2022/11/06 02:25:47;;;;;;;20.02;17.98;;;9.40;99.90;;;;;;5119261;27;20063;-78
2022/11/06 02:28:29;;;;;;;19.40;16.50;;;9.40;99.90;;;;;;5102697;27;20563;-76
2022/11/06 02:31:00;;;;;;;19.25;17.08;;;9.30;99.90;;;;;;5136088;27;20127;-77
2022/11/06 02:33:28;;;;;;;;;;;9.40;99.90;;;;;;5097332;27;20036;-77
2022/11/06 02:36:09;;;;;;;19.02;17.02;;;9.30;99.90;;;;;;5102418;27;19927;-77
2022/11/06 02:38:42;;;;;;;19.85;16.85;;;9.30;99.90;;;;;;5127372;27;20062;-77
2022/11/06 02:41:15;;;;;;;21.77;17.02;;;9.30;99.90;;;;;;5127766;27;20130;-77
2022/11/06 02:43:51;;;;;;;22.13;18.10;;;9.30;99.90;;;;;;5102743;27;20760;-72
2022/11/06 02:46:22;;;;;;;22.10;17.33;;;9.30;99.90;;;;;;5121803;27;20092;-72
2022/11/06 02:48:56;;;;;;;20.88;17.50;;;9.30;99.90;;;;;;5117430;27;20054;-72
2022/11/06 02:51:25;;;;;;;21.25;16.67;;;9.30;99.90;;;;;;5120413;27;20135;-77
2022/11/06 02:53:53;;;;;;;25.65;18.38;;;9.30;99.90;;;;;;5116375;27;20058;-77
2022/11/06 02:56:25;;;;;;;21.52;17.15;;;9.20;99.90;;;;;;5114509;27;20042;-77
2022/11/06 02:58:56;;;;;;;18.05;16.20;;;9.30;99.90;;;;;;5156894;27;20054;-77
2022/11/06 03:01:28;;;;;;;23.50;17.50;;;9.30;99.90;;;;;;5124318;27;20789;-78
2022/11/06 03:03:59;;;;;;;22.25;18.40;;;9.30;99.90;;;;;;5142167;27;20104;-78
2022/11/06 03:06:46;;;;;;;19.80;15.48;;;9.30;99.90;;;;;;5107672;27;20130;-77
2022/11/06 03:09:17;;;;;;;17.77;15.35;;;9.30;99.90;;;;;;5122266;27;20054;-78
2022/11/06 03:11:56;;;;;;;19.67;15.63;;;9.30;99.90;;;;;;5118116;27;20067;-77
2022/11/06 03:14:50;;;;;;;21.27;17.37;;;9.30;99.90;;;;;;5102824;27;20770;-77
2022/11/06 03:17:30;;;;;;;21.27;16.60;;;9.30;99.90;;;;;;5099281;27;20395;-77
2022/11/06 03:20:27;;;;;;;21.08;17.27;;;9.30;99.90;;;;;;5103892;27;20452;-77
2022/11/06 03:23:23;;;;;;;18.38;16.40;;;9.30;99.90;;;;;;5109956;27;20039;-77
2022/11/06 03:26:12;;;;;;;25.60;17.38;;;9.20;99.90;;;;;;5115089;27;20077;-77
2022/11/06 03:28:54;;;;;;;22.33;16.08;;;9.20;99.90;;;;;;5087367;27;20470;-78
2022/11/06 03:31:35;;;;;;;21.48;16.23;;;9.20;99.90;;;;;;5148303;27;20053;-72
2022/11/06 03:34:03;;;;;;;;;;;9.30;99.90;;;;;;5102232;28;20576;-72
2022/11/06 03:36:53;;;;;;;21.33;16.42;;;9.20;99.90;;;;;;5114375;27;19919;-72
2022/11/06 03:39:31;;;;;;;19.80;17.48;;;9.20;99.90;;;;;;5109044;27;20702;-72
2022/11/06 03:42:09;;;;;;;20.63;17.05;;;9.20;99.90;;;;;;5154319;27;20035;-72
2022/11/06 03:44:40;;;;;;;19.73;16.45;;;9.20;99.90;;;;;;5109525;27;20100;-72
2022/11/06 03:47:16;;;;;;;22.75;16.92;;;9.20;99.90;;;;;;5108309;27;20059;-72
2022/11/06 03:49:48;;;;;;;20.85;16.92;;;9.20;99.90;;;;;;5100775;27;20050;-76
2022/11/06 03:52:37;;;;;;;20.70;16.48;;;9.20;99.90;;;;;;5106416;27;20051;-76
2022/11/06 03:55:21;;;;;;;20.75;16.50;;;9.20;99.90;;;;;;5118782;27;20522;-77
2022/11/06 03:57:49;;;;;;;20.05;16.60;;;9.20;99.90;;;;;;5107529;27;20048;-76
2022/11/06 04:00:16;;;;;;;19.85;16.00;;;9.20;99.90;;;;;;5086882;28;20081;-77
2022/11/06 04:02:49;;;;;;;21.30;17.58;;;9.20;99.90;;;;;;5095472;27;20430;-77
2022/11/06 04:05:20;;;;;;;25.98;17.73;;;9.20;99.90;;;;;;5093879;28;20055;-77
2022/11/06 04:16:17;;;;;;;22.02;16.50;;;9.20;99.90;;;;;;5112280;27;20051;-77
2022/11/06 04:18:43;;;;;;;19.58;16.00;;;9.20;99.90;;;;;;5099544;27;20042;-77
2022/11/06 04:21:35;;;;;;;24.98;16.90;;;9.20;99.90;;;;;;5097942;28;20048;-77
2022/11/06 04:27:14;;;;;;;19.92;15.25;;;9.10;99.90;;;;;;5120195;27;20531;-77
2022/11/06 04:29:59;;;;;;;18.20;16.30;;;9.20;99.90;;;;;;5103422;27;20031;-76
2022/11/06 04:32:40;;;;;;;24.40;15.63;;;9.20;99.90;;;;;;5106730;27;20047;-77
2022/11/06 04:35:19;;;;;;;16.30;14.15;;;9.20;99.90;;;;;;5120465;27;20037;-78
2022/11/06 04:38:08;;;;;;;18.63;14.48;;;9.20;99.90;;;;;;5101015;27;20052;-77
2022/11/06 04:40:43;;;;;;;22.85;16.98;;;9.20;99.90;;;;;;5103226;27;20054;-76
2022/11/06 04:43:31;;;;;;;18.50;14.20;;;9.20;99.90;;;;;;5113583;27;20047;-77
2022/11/06 04:46:02;;;;;;;18.73;12.95;;;9.20;99.90;;;;;;5114645;27;20039;-77
2022/11/06 04:48:29;;;;;;;16.65;13.70;;;9.20;99.90;;;;;;5122376;27;20584;-77
2022/11/06 04:50:59;;;;;;;18.65;15.00;;;9.20;99.90;;;;;;5108114;27;20050;-77
2022/11/06 04:53:27;;;;;;;21.48;14.15;;;9.20;99.90;;;;;;5108522;27;20142;-75
2022/11/06 04:55:59;;;;;;;20.17;14.93;;;9.20;99.90;;;;;;5086142;27;20043;-76
2022/11/06 04:58:24;;;;;;;16.60;12.88;;;9.20;99.90;;;;;;5127772;27;20126;-77
2022/11/06 05:00:51;;;;;;;16.08;12.00;;;9.20;99.90;;;;;;5090087;27;20790;-77
2022/11/06 05:03:17;;;;;;;17.60;13.20;;;9.20;99.90;;;;;;5094794;27;20111;-75
2022/11/06 05:05:43;;;;;;;18.45;13.60;;;9.20;99.90;;;;;;5110577;27;20078;-76
2022/11/06 05:08:19;;;;;;;21.10;14.52;;;9.20;99.90;;;;;;5144145;27;20039;-76
2022/11/06 05:10:46;;;;;;;19.90;13.52;;;9.20;99.90;;;;;;5106621;27;20047;-76
2022/11/06 05:13:12;;;;;;;18.05;14.65;;;9.20;99.90;;;;;;5110356;27;20512;-72
2022/11/06 05:15:38;;;;;;;22.23;13.10;;;9.20;99.90;;;;;;5120935;27;20043;-71
2022/11/06 05:18:05;;;;;;;15.85;11.85;;;9.20;99.90;;;;;;5102636;27;20035;-71
2022/11/06 05:20:31;;;;;;;15.60;11.45;;;9.20;99.90;;;;;;5126718;27;20043;-71
2022/11/06 05:22:57;;;;;;;18.10;11.43;;;9.20;99.90;;;;;;5095879;28;20035;-72
2022/11/06 05:25:34;;;;;;;16.27;11.55;;;9.20;99.90;;;;;;5090966;27;20051;-71
2022/11/06 05:28:01;;;;;;;16.80;11.70;;;9.20;99.90;;;;;;5114974;27;20050;-72
2022/11/06 05:30:27;;;;;;;19.90;11.32;;;9.20;99.90;;;;;;5104654;27;20626;-72
2022/11/06 05:32:54;;;;;;;12.88;10.88;;;9.20;99.90;;;;;;5106327;27;20070;-71
2022/11/06 05:35:20;;;;;;;14.88;10.02;;;9.20;99.90;;;;;;5097368;27;20687;-77
2022/11/06 05:37:46;;;;;;;16.05;10.70;;;9.20;99.90;;;;;;5121083;27;20039;-77
2022/11/06 05:40:12;;;;;;;16.63;10.43;;;9.20;99.90;;;;;;5096591;27;20051;-77
2022/11/06 05:42:39;;;;;;;17.95;10.48;;;9.20;99.90;;;;;;5096640;27;20094;-77
2022/11/06 05:45:10;;;;;;;14.95;9.85;;;9.20;99.90;;;;;;5115520;27;20055;-77
2022/11/06 05:47:38;;;;;;;13.07;8.82;;;9.20;99.90;;;;;;5101957;27;20422;-76
2022/11/06 05:50:04;;;;;;;14.07;8.55;;;9.30;99.90;;;;;;5097778;27;20429;-77
2022/11/06 05:52:30;;;;;;;14.63;8.55;;;9.30;99.90;;;;;;5116994;27;20035;-76
2022/11/06 05:54:56;;;;;;;15.35;7.85;;;9.30;99.90;;;;;;5097207;27;20035;-77
2022/11/06 05:57:21;;;;;;;12.65;8.00;;;9.30;99.90;;;;;;5118423;27;20402;-76
2022/11/06 05:59:47;;;;;;;13.15;8.45;;;9.30;99.90;;;;;;5103401;27;20382;-76
2022/11/06 06:02:13;;;;;;;14.45;7.75;;;9.30;99.90;;;;;;5129673;27;20063;-77
2022/11/06 06:04:39;;;;;;;12.98;6.88;;;9.30;99.90;;;;;;5134902;27;20541;-77
2022/11/06 06:07:04;;;;;;;13.13;7.05;;;9.30;99.90;;;;;;5115412;27;20509;-75
2022/11/06 06:09:31;;;;;;;12.65;6.43;;;9.30;99.90;;;;;;5078822;28;20050;-76
2022/11/06 06:11:57;;;;;;;10.88;6.45;;;9.40;99.90;;;;;;5133614;27;20042;-76
2022/11/06 06:14:22;;;;;;;10.43;6.07;;;9.40;99.90;;;;;;5123577;27;20050;-76
2022/11/06 06:16:48;;;;;;;13.13;7.13;;;9.40;99.90;;;;;;5089774;28;20210;-76
2022/11/06 06:19:14;;;;;;;15.88;7.32;;;9.40;99.90;;;;;;5112095;27;20047;-77
2022/11/06 06:21:40;;;;;;;13.55;6.57;;;9.40;99.90;;;;;;5095460;27;20127;-76
2022/11/06 06:24:06;;;;;;;12.10;6.85;;;9.40;99.90;;;;;;5119084;27;20076;-76
2022/11/06 06:26:32;;;;;;;12.93;6.90;;;9.40;99.90;;;;;;5096939;27;20046;-76
2022/11/06 06:29:02;;;;;;;16.67;7.38;;;9.50;99.90;;;;;;5121748;27;20039;-77
2022/11/06 06:31:27;;;;;;;13.55;6.38;;;9.50;99.90;;;;;;5118575;27;20043;-76
2022/11/06 06:33:53;;;;;;;15.35;6.47;;;9.50;99.90;;;;;;5105653;27;20050;-76
2022/11/06 06:36:19;;;;;;;13.15;6.22;;;9.50;99.90;;;;;;5088645;28;20054;-77
2022/11/06 06:38:44;;;;;;;12.55;6.22;;;9.60;99.90;;;;;;5117352;27;20142;-77
2022/11/06 06:41:13;;;;;;;15.38;7.18;;;9.60;99.90;;;;;;5102826;28;20153;-77
2022/11/06 06:43:39;;;;;;;13.35;6.30;;;9.60;99.90;;;;;;5101202;28;20127;-77
2022/11/06 06:46:06;;;;;;;10.98;5.82;;;9.60;99.90;;;;;;5079099;28;20094;-76
2022/11/06 06:48:32;;;;;;;13.25;6.35;;;9.60;99.90;;;;;;5077860;28;20039;-77
2022/11/06 06:50:59;;;;;;;16.20;6.45;;;9.70;99.90;;;;;;5103309;28;20063;-77
2022/11/06 06:53:26;;;;;;;9.43;5.32;;;9.70;99.90;;;;;;5119372;27;20043;-77
2022/11/06 06:55:52;;;;;;;13.23;5.82;;;9.70;99.90;;;;;;5116347;27;20051;-77
2022/11/06 06:58:18;;;;;;;11.90;5.50;;;9.70;99.90;;;;;;5108983;27;20099;-77
2022/11/06 07:00:45;;;;;;;11.20;5.97;;;9.70;99.90;;;;;;5115508;27;20059;-76
2022/11/06 07:03:10;;;;;;;12.65;6.07;;;9.70;99.90;;;;;;5082925;28;20294;-72
2022/11/06 07:05:37;;;;;;;11.20;4.97;;;9.80;99.90;;;;;;5086356;27;20056;-71
2022/11/06 07:08:03;;;;;;;11.57;5.35;;;9.70;99.90;;;;;;5139801;27;20501;-71
2022/11/06 07:10:29;;;;;;;7.45;4.53;;;9.80;99.90;;;;;;5151135;27;20068;-72
2022/11/06 07:12:59;;;;;;;13.93;5.05;;;9.80;99.90;;;;;;5121732;27;20132;-72
2022/11/06 07:15:25;;;;;;;11.40;5.35;;;9.90;99.90;;;;;;5098093;28;20718;-77
2022/11/06 07:17:50;;;;;;;9.38;4.50;;;9.90;99.90;;;;;;5079368;28;20056;-77
2022/11/06 07:20:16;;;;;;;9.18;4.90;;;9.90;99.90;;;;;;5113083;28;20039;-77
2022/11/06 07:22:42;;;;;;;12.02;4.65;;;9.90;99.90;;;;;;5093620;28;20054;-77
2022/11/06 07:25:08;;;;;;;9.48;4.30;;;9.90;99.90;;;;;;5086205;28;20044;-77
2022/11/06 07:27:34;;;;;;;12.40;5.15;;;9.90;99.90;;;;;;5147455;27;20044;-77
2022/11/06 07:30:00;;;;;;;11.52;4.93;;;10.00;99.90;;;;;;5074803;27;20035;-77
2022/11/06 07:32:26;;;;;;;9.75;4.97;;;10.00;99.90;;;;;;5118759;27;20047;-78
2022/11/06 07:34:51;;;;;;;10.40;4.85;;;10.00;99.90;;;;;;5091734;27;20040;-77
2022/11/06 07:37:17;;;;;;;8.38;4.28;;;10.10;99.90;;;;;;5117115;27;20055;-77
2022/11/06 07:39:43;;;;;;;9.20;4.30;;;10.10;99.90;;;;;;5131293;27;20043;-77
2022/11/06 07:42:09;;;;;;;10.18;4.03;;;10.10;99.90;;;;;;5152291;27;20066;-77
2022/11/06 07:44:34;;;;;;;9.75;3.97;;;10.10;99.90;;;;;;5109291;27;20100;-77
2022/11/06 07:47:00;;;;;;;8.85;3.80;;;10.20;99.90;;;;;;5099545;27;20039;-77
2022/11/06 07:49:26;;;;;;;11.98;4.78;;;10.20;99.90;;;;;;5101014;27;20047;-78
2022/11/06 07:51:55;;;;;;;10.05;4.20;;;10.20;99.90;;;;;;5155175;27;20521;-77
2022/11/06 07:54:21;;;;;;;12.13;4.65;;;10.20;99.90;;;;;;5132728;27;20088;-77
2022/11/06 07:56:47;;;;;;;8.77;5.03;;;10.20;99.90;;;;;;5119651;27;20039;-77
2022/11/06 07:59:13;;;;;;;11.15;4.55;;;10.10;99.90;;;;;;5114160;27;20036;-77
2022/11/06 08:01:38;;;;;;;11.45;4.90;;;10.10;99.90;;;;;;5132082;27;20039;-77
2022/11/06 08:04:04;;;;;;;9.20;4.50;;;10.10;99.90;;;;;;5084332;27;20051;-78
2022/11/06 08:06:30;;;;;;;7.97;3.90;;;10.10;99.90;;;;;;5104181;27;20434;-77
2022/11/06 08:08:56;;;;;;;10.73;3.92;;;10.10;99.90;;;;;;5095994;27;20051;-77
2022/11/06 08:11:22;;;;;;;13.18;4.50;;;10.20;99.90;;;;;;5130324;27;20119;-77
2022/11/06 08:13:47;;;;;;;8.70;3.95;;;10.20;99.90;;;;;;5106798;27;20055;-78
2022/11/06 08:16:14;;;;;;;11.15;4.00;;;10.20;99.90;;;;;;5101266;27;20851;-78
2022/11/06 08:18:40;;;;;;;11.75;4.03;;;10.20;99.90;;;;;;5093134;27;20032;-78
2022/11/06 08:21:06;;;;;;;10.93;4.38;;;10.30;99.90;;;;;;5119091;27;20051;-77
2022/11/06 08:23:33;;;;;;;14.27;4.18;;;10.30;99.90;;;;;;5125139;27;20044;-77
2022/11/06 08:26:01;;;;;;;11.48;4.13;;;10.30;99.90;;;;;;5123060;27;20050;-78
2022/11/06 08:28:28;;;;;;;8.45;3.33;;;10.30;99.90;;;;;;5104270;27;20802;-77
2022/11/06 08:30:57;;;;;;;12.00;3.88;;;10.30;99.90;;;;;;5102103;27;20044;-79
2022/11/06 08:33:23;;;;;;;9.85;4.25;;;10.20;99.90;;;;;;5104213;27;20766;-77
2022/11/06 08:35:52;;;;;;;9.73;4.18;;;10.30;99.90;;;;;;5118643;27;20812;-77
2022/11/06 08:38:18;;;;;;;10.85;4.32;;;10.30;99.90;;;;;;5095196;27;20066;-78
2022/11/06 08:40:44;;;;;;;10.85;4.43;;;10.30;99.90;;;;;;5086121;28;20082;-77
2022/11/06 08:43:10;;;;;;;11.95;4.82;;;10.20;99.90;;;;;;5117405;27;20560;-77
2022/11/06 08:45:38;;;;;;;10.93;4.53;;;10.20;99.90;;;;;;5111255;27;20055;-78
2022/11/06 08:48:04;;;;;;;12.70;4.88;;;10.20;99.90;;;;;;5096430;27;20044;-78
2022/11/06 08:50:31;;;;;;;9.13;4.20;;;10.20;99.90;;;;;;5121977;27;20055;-77
2022/11/06 08:53:05;;;;;;;11.77;4.82;;;10.10;99.90;;;;;;5114693;27;20118;-77
2022/11/06 08:55:32;;;;;;;10.77;4.13;;;10.10;99.90;;;;;;5120273;27;20111;-77
2022/11/06 08:58:01;;;;;;;11.23;4.60;;;10.10;99.90;;;;;;5103716;27;20047;-76
2022/11/06 09:00:28;;;;;;;9.00;3.92;;;10.10;99.90;;;;;;5127233;27;20031;-77
2022/11/06 09:03:20;;;;;;;8.98;3.90;;;10.20;99.90;;;;;;5102220;27;20086;-77
2022/11/06 09:05:46;;;;;;;11.30;4.70;;;10.20;99.90;;;;;;5133508;27;20508;-77
2022/11/06 09:08:13;;;;;;;11.52;4.45;;;10.20;99.90;;;;;;5076814;28;20043;-78
2022/11/06 09:10:40;;;;;;;12.00;4.28;;;10.20;99.90;;;;;;5118827;27;20421;-78
2022/11/06 09:13:06;;;;;;;10.88;4.00;;;10.30;99.90;;;;;;5120792;27;20096;-78
2022/11/06 09:15:32;;;;;;;11.18;4.10;;;10.30;99.90;;;;;;5102662;27;20108;-77
2022/11/06 09:17:58;;;;;;;10.10;3.75;;;10.30;99.90;;;;;;5128213;27;20040;-79
2022/11/06 09:20:25;;;;;;;9.73;3.97;;;10.40;99.90;;;;;;5100595;27;20039;-78
2022/11/06 09:22:51;;;;;;;8.07;4.00;;;10.40;99.90;;;;;;5113812;27;20044;-78
2022/11/06 09:25:18;;;;;;;8.88;3.70;;;10.50;99.90;;;;;;5097346;27;20061;-78
2022/11/06 09:27:46;;;;;;;10.07;4.10;;;10.50;99.90;;;;;;5093152;28;21072;-77
2022/11/06 09:30:15;;;;;;;12.18;4.30;;;10.70;99.90;;;;;;5093669;27;20043;-76
2022/11/06 09:32:53;;;;;;;9.48;3.60;;;10.80;99.90;;;;;;5115286;27;20051;-77
2022/11/06 09:35:20;;;;;;;10.23;3.90;;;10.90;99.90;;;;;;5115660;27;20829;-77
2022/11/06 09:37:46;;;;;;;8.48;3.65;;;11.00;99.90;;;;;;5113056;27;20081;-76
2022/11/06 09:40:24;;;;;;;8.30;3.97;;;11.10;99.90;;;;;;5102847;27;20556;-76
2022/11/06 09:43:06;;;;;;;10.45;3.60;;;11.20;99.90;;;;;;5117183;27;20096;-77
2022/11/06 09:45:33;;;;;;;5.93;3.00;;;11.40;99.90;;;;;;5094351;28;20410;-77
2022/11/06 09:48:28;;;;;;;10.48;3.45;;;11.40;99.90;;;;;;5118270;27;20392;-77
2022/11/06 09:51:14;;;;;;;9.25;3.67;;;11.40;99.90;;;;;;5107415;27;20055;-77
2022/11/06 09:53:52;;;;;;;8.25;3.17;;;11.40;99.90;;;;;;5090065;27;20047;-77
2022/11/06 09:56:20;;;;;;;8.35;3.40;;;11.40;99.90;;;;;;5100913;28;20380;-77
2022/11/06 09:58:47;;;;;;;8.82;2.85;;;11.40;99.90;;;;;;5097196;27;20089;-77
2022/11/06 10:01:34;;;;;;;9.77;3.20;;;11.40;99.90;;;;;;5116970;27;20042;-77
2022/11/06 10:04:02;;;;;;;7.57;3.40;;;11.40;99.90;;;;;;5113262;27;20287;-77
2022/11/06 10:06:29;;;;;;;8.48;3.75;;;11.40;99.90;;;;;;5144640;27;20391;-77
2022/11/06 10:09:01;;;;;;;7.78;2.45;;;11.40;99.90;;;;;;5101634;27;20035;-77
2022/11/06 10:11:40;;;;;;;9.05;2.78;;;11.30;99.90;;;;;;5102675;27;20043;-77
2022/11/06 10:14:29;;;;;;;8.13;2.95;;;11.30;99.90;;;;;;5093245;28;20062;-78
2022/11/06 10:17:00;;;;;;;8.77;3.13;;;11.30;99.90;;;;;;5103474;27;20051;-77
2022/11/06 10:19:54;;;;;;;9.32;3.25;;;11.40;99.90;;;;;;5127549;27;20039;-77
2022/11/06 10:22:40;;;;;;;7.53;2.80;;;11.30;99.90;;;;;;5103882;27;20111;-79
2022/11/06 10:25:18;;;;;;;11.23;3.50;;;11.30;99.90;;;;;;5107243;27;20154;-79
2022/11/06 10:27:53;;;;;;;10.40;3.58;;;11.30;99.90;;;;;;5109303;27;20063;-78
2022/11/06 10:30:19;;;;;;;9.63;3.53;;;11.30;99.90;;;;;;5103288;27;20579;-78
2022/11/06 10:32:54;;;;;;;8.07;3.13;;;11.30;99.90;;;;;;5112881;27;20062;-78
2022/11/06 10:35:28;;;;;;;12.75;2.83;;;11.30;99.90;;;;;;5101390;28;20043;-78
2022/11/06 10:37:59;;;;;;;10.63;3.33;;;11.30;99.90;;;;;;5126704;27;20038;-78
2022/11/06 10:40:30;;;;;;;8.35;3.28;;;11.30;99.90;;;;;;5113884;27;20047;-78
2022/11/06 10:42:59;;;;;;;;;;;11.30;99.90;;;;;;5109559;28;20390;-77
2022/11/06 10:45:27;;;;;;;7.93;3.08;;;11.40;99.90;;;;;;5127859;27;19927;-78
2022/11/06 10:48:14;;;;;;;8.77;3.28;;;11.30;99.90;;;;;;5102663;28;20405;-78
2022/11/06 10:51:10;;;;;;;9.13;3.38;;;11.40;99.90;;;;;;5114441;27;20040;-78
2022/11/06 10:53:45;;;;;;;10.80;3.35;;;11.40;99.90;;;;;;5095068;28;20522;-78
2022/11/06 10:56:55;;;;;;;9.05;2.75;;;11.40;99.90;;;;;;5123521;27;20043;-78
2022/11/06 10:59:21;;;;;;;8.85;2.70;;;11.40;99.90;;;;;;5137355;27;20061;-79
2022/11/06 11:01:47;;;;;;;8.20;3.35;;;11.30;99.90;;;;;;5091506;27;20620;-78
2022/11/06 11:04:12;;;;;;;8.45;2.80;;;11.30;99.90;;;;;;5095159;27;20149;-78
2022/11/06 11:06:41;;;;;;;8.27;3.58;;;11.30;99.90;;;;;;5098880;28;20040;-78
2022/11/06 11:09:25;;;;;;;9.73;3.22;;;11.30;99.90;;;;;;5113950;27;20075;-78
2022/11/06 11:11:51;;;;;;;9.15;3.25;;;11.30;99.90;;;;;;5101797;27;20073;-77
2022/11/06 11:14:29;;;;;;;7.05;3.10;;;11.30;99.90;;;;;;5114536;27;20035;-77
2022/11/06 11:16:59;;;;;;;8.40;3.15;;;11.30;99.90;;;;;;5096063;28;20079;-77
2022/11/06 11:19:35;;;;;;;9.68;3.30;;;11.30;99.90;;;;;;5148943;27;20138;-76
2022/11/06 11:22:16;;;;;;;9.45;3.50;;;11.30;99.90;;;;;;5121162;27;20456;-77
2022/11/06 11:25:24;;;;;;;12.77;4.05;;;11.30;99.90;;;;;;5155587;27;20066;-78
2022/11/06 11:27:50;;;;;;;10.00;3.65;;;11.40;99.90;;;;;;5083655;27;20179;-78
2022/11/06 11:30:28;;;;;;;12.07;3.88;;;11.40;99.90;;;;;;5101873;27;20823;-78
2022/11/06 11:32:58;;;;;;;10.98;3.30;;;11.40;99.90;;;;;;5111501;27;20051;-79
2022/11/06 11:35:31;;;;;;;9.93;3.90;;;11.40;99.90;;;;;;5116946;27;20485;-76
2022/11/06 11:38:09;;;;;;;8.27;3.10;;;11.40;99.90;;;;;;5094288;27;20051;-77
2022/11/06 11:40:37;;;;;;;9.38;3.08;;;11.50;99.90;;;;;;5101914;27;20043;-76
2022/11/06 11:43:22;;;;;;;8.70;2.92;;;11.50;99.90;;;;;;5098824;27;20042;-78
2022/11/06 11:46:07;;;;;;;8.98;3.28;;;11.50;99.90;;;;;;5137437;27;20089;-78
2022/11/06 11:48:44;;;;;;;9.35;3.47;;;11.50;99.90;;;;;;5112374;27;20040;-77
2022/11/06 11:51:21;;;;;;;10.07;3.00;;;11.50;99.90;;;;;;5118535;27;21910;-78
2022/11/06 11:53:47;;;;;;;7.55;2.63;;;11.60;99.90;;;;;;5114879;27;20577;-78
2022/11/06 11:56:18;;;;;;;7.47;2.72;;;11.70;99.90;;;;;;5116986;27;20141;-76
2022/11/06 11:58:55;;;;;;;6.85;2.80;;;11.70;99.90;;;;;;5102834;27;20050;-77
2022/11/06 12:01:37;;;;;;;8.30;2.83;;;11.70;99.90;;;;;;5113744;27;20743;-78
2022/11/06 12:04:20;;;;;;;7.93;2.50;;;11.80;99.90;;;;;;5109199;27;20051;-77
2022/11/06 12:07:01;;;;;;;6.53;3.03;;;11.90;99.90;;;;;;5113579;27;20093;-77
2022/11/06 12:09:31;;;;;;;7.55;2.15;;;11.90;99.90;;;;;;5152348;27;20046;-76
2022/11/06 12:12:01;;;;;;;7.10;2.67;;;12.00;99.90;;;;;;5113331;27;20051;-76
2022/11/06 12:14:31;;;;;;;8.20;2.72;;;12.00;99.90;;;;;;5121663;27;20064;-77
2022/11/06 12:17:14;;;;;;;7.97;2.35;;;12.10;99.90;;;;;;5141758;27;20139;-76
2022/11/06 12:19:45;;;;;;;6.30;2.17;;;12.10;99.90;;;;;;5117907;27;20070;-77
2022/11/06 12:22:23;;;;;;;7.07;2.30;;;12.20;99.90;;;;;;5116555;27;20125;-77
2022/11/06 12:24:52;;;;;;;6.70;2.33;;;12.20;99.90;;;;;;5095052;28;20198;-77
2022/11/06 12:27:24;;;;;;;8.17;2.03;;;12.30;99.90;;;;;;5096366;28;20097;-75
2022/11/06 12:30:02;;;;;;;6.38;1.90;;;12.40;99.90;;;;;;5093462;27;20051;-77
2022/11/06 12:32:42;;;;;;;6.28;1.80;;;12.40;99.90;;;;;;5125324;27;20046;-78
2022/11/06 12:35:23;;;;;;;5.25;2.00;;;12.40;99.90;;;;;;5094466;27;20043;-77
2022/11/06 12:38:18;;;;;;;5.25;1.48;;;12.40;99.90;;;;;;5102133;27;20057;-78
2022/11/06 12:40:55;;;;;;;6.72;1.92;;;12.60;99.90;;;;;;5121165;27;20130;-80
2022/11/06 12:43:29;;;;;;;9.32;2.03;;;12.50;99.90;;;;;;5147812;27;20035;-77
2022/11/06 12:46:14;;;;;;;5.63;1.67;;;12.50;99.90;;;;;;5127329;27;20048;-77
2022/11/06 12:48:51;;;;;;;5.65;2.20;;;12.50;99.90;;;;;;5116488;27;20043;-77
2022/11/06 12:51:20;;;;;;;6.22;1.80;;;12.40;99.90;;;;;;5117387;27;20070;-78
2022/11/06 12:54:18;;;;;;;6.05;1.83;;;12.30;99.90;;;;;;5119544;27;20051;-80
2022/11/06 12:56:59;;;;;;;6.35;1.80;;;12.30;99.90;;;;;;5057316;27;20103;-77
2022/11/06 13:00:03;;;;;;;7.47;2.15;;;12.30;99.90;;;;;;5096108;28;20058;-77
2022/11/06 13:02:46;;;;;;;9.90;2.30;;;12.30;99.90;;;;;;5095403;27;20075;-76
2022/11/06 13:05:18;;;;;;;7.03;1.70;;;12.20;99.90;;;;;;5157644;27;20102;-79
2022/11/06 13:07:54;;;;;;;7.60;2.30;;;12.20;99.90;;;;;;5112327;27;20048;-79
2022/11/06 13:10:31;;;;;;;7.18;2.20;;;12.20;99.90;;;;;;5133770;27;20039;-80
2022/11/06 13:13:17;;;;;;;7.53;1.90;;;12.20;99.90;;;;;;5098826;27;20043;-78
2022/11/06 13:16:03;;;;;;;6.80;2.10;;;12.20;99.90;;;;;;5121108;27;20055;-78
2022/11/06 13:18:39;;;;;;;5.93;2.00;;;12.20;99.90;;;;;;5121865;27;20051;-78
2022/11/06 13:21:08;;;;;;;6.15;1.80;;;12.20;99.90;;;;;;5118270;27;20050;-77